Aviation Digital Data Service (ADDS)

Output produced by METARs form (0504 UTC 21 September 2017)
found at http://www.aviationweather.gov/adds/metars/
 
FNBG 210500Z 19004KT CAVOK 20/19 Q1015
TAF FNBG 202230Z 2100/2112 22006KT 8000 FEW020 
     PROB30 
     TEMPO 2104/2108 5000 BR SCT016 
     BECMG 2110/2112 28010KT CAVOK
       
TAF FNCA 202230Z 2100/2112 VRB03KT 9000 BKN023 
     TEMPO 2103/2107 16006KT -DZ BKN020 
     BECMG 2110/2112 24008KT 9999 SCT023
       
FNDU 210500Z 00000KT 5000 BR NSC 21/// Q1015
FNHU 210500Z 03005KT CAVOK 18/10 Q1023
TAF FNHU 202230Z 2100/2112 15005KT 7000 FEW018 
     BECMG 2104/2106 CAVOK
       
TAF FNKU 202230Z 2100/2112 16006KT 8000 FEW016 
     BECMG 2108/2110 09006KT CAVOK
       
FNLU 210500Z 14006KT 9999 FEW015 BKN020 22/20 Q1014 NOSIG
TAF FNLU 210430Z 2106/2212 15010KT 8000 FEW018 BKN023 
     PROB30 
     TEMPO 2106/2109 5000 -DZ BR FEW020 BKN022 
     BECMG 2111/2113 29010KT 9999 FEW016 
     TEMPO 2114/2118 22010KT CAVOK 
     BECMG 2120/2122 FEW020 
     TEMPO 2202/2206 VRB03KT 8000 BKN022
       
FNUE 210500Z 15006KT CAVOK 16/09 Q1020
TAF FNUE 202230Z 2100/2112 24005KT 9000 SCT025 
     BECMG 2106/2108 9999 FEW022
       
TAF FNMA 202230Z 2100/2112 VRB03KT 8000 BKN010 FEW016CB 
     TEMPO 2105/2109 7000 BKN012 
     BECMG 2110/2112 29010KT 9999 BKN014
       
TAF FNME 202230Z 2100/2112 16006KT 9999 FEW018 
     BECMG 2109/2111 09008KT CAVOK
       
TAF FNMO 202245Z 2100/2112 VRB03KT 9000 BKN018 
     PROB30 
     TEMPO 2102/2106 23008KT 5000 BR BKN016 
     BECMG 2109/2111 29010KT 9999 FEW016
       
TAF FNGI 202230Z 2100/2112 16006KT 9000 FEW016 
     TEMPO 2103/2107 9999 CAVOK
       
TAF FNSA 202230Z 2100/2112 28005KT 9999 FEW018 
     PROB30 
     TEMPO 2104/2108 VRB03KT 8000 -TSRA BKN020 FEW023TCU 
     BECMG 2109/2111 22008KT 9999 FEW025
       
TAF FNSO 202230Z 2100/2112 21008KT 9000 BKN022 
     TEMPO 2103/2107 -DZ SCT020 
     BECMG 2110/2112 27010KT 9999 SCT020